createdAt,value
2023-05-14T00:01:16.674Z,31.61
2023-05-14T00:03:43.635Z,31.88
2023-05-14T00:06:11.133Z,31.73
2023-05-14T00:08:37.724Z,31.96
2023-05-14T00:11:04.680Z,31.92
2023-05-14T00:13:31.238Z,32.05
2023-05-14T00:15:57.823Z,31.97
2023-05-14T00:18:24.853Z,31.94
2023-05-14T00:20:54.599Z,31.97
2023-05-14T00:23:22.058Z,31.98
2023-05-14T00:25:49.050Z,32.02
2023-05-14T00:28:15.919Z,31.94
2023-05-14T00:30:42.452Z,32.01
2023-05-14T00:33:09.144Z,31.91
2023-05-14T00:35:35.833Z,31.96
2023-05-14T00:38:03.750Z,31.87
2023-05-14T00:40:30.411Z,31.87
2023-05-14T00:42:57.801Z,31.86
2023-05-14T00:45:25.633Z,31.72
2023-05-14T00:47:53.927Z,31.41
2023-05-14T00:50:21.430Z,31.53
2023-05-14T00:52:49.009Z,31.55
2023-05-14T00:55:17.209Z,31.44
2023-05-14T00:57:44.548Z,31.45
2023-05-14T01:00:12.075Z,31.37
2023-05-14T01:02:38.909Z,31.42
2023-05-14T01:05:06.266Z,31.38
2023-05-14T01:07:44.995Z,31.23
2023-05-14T01:10:24.775Z,31.28
2023-05-14T01:13:18.285Z,31.27
2023-05-14T01:15:47.282Z,31.26
2023-05-14T01:18:18.054Z,31.16
2023-05-14T01:20:45.520Z,31.25
2023-05-14T01:23:12.109Z,31.11
2023-05-14T01:25:39.358Z,31.01
2023-05-14T01:28:19.357Z,30.96
2023-05-14T01:30:57.219Z,31.15
2023-05-14T01:33:27.759Z,31.03
2023-05-14T01:35:55.696Z,30.83
2023-05-14T01:38:24.151Z,30.85
2023-05-14T01:40:51.614Z,30.84
2023-05-14T01:43:19.017Z,30.97
2023-05-14T01:45:46.108Z,30.74
2023-05-14T01:48:12.850Z,30.88
2023-05-14T01:50:39.474Z,31.00
2023-05-14T01:53:06.405Z,30.85
2023-05-14T01:55:32.970Z,30.92
2023-05-14T01:57:59.773Z,30.89
2023-05-14T02:00:27.116Z,30.86
2023-05-14T02:02:54.259Z,30.98
2023-05-14T02:05:23.048Z,30.98
2023-05-14T02:07:49.754Z,31.01
2023-05-14T02:10:16.289Z,30.95
2023-05-14T02:12:42.938Z,30.89
2023-05-14T02:15:11.012Z,30.89
2023-05-14T02:17:38.103Z,30.96
2023-05-14T02:20:05.625Z,30.82
2023-05-14T02:22:45.487Z,30.83
2023-05-14T02:25:12.493Z,30.71
2023-05-14T02:27:39.052Z,30.76
2023-05-14T02:30:06.130Z,30.80
2023-05-14T02:32:33.426Z,30.69
2023-05-14T02:35:00.121Z,30.63
2023-05-14T02:37:26.894Z,30.72
2023-05-14T02:39:53.944Z,30.61
2023-05-14T02:42:22.628Z,30.39
2023-05-14T02:44:49.301Z,30.56
2023-05-14T02:47:16.023Z,30.44
2023-05-14T02:49:42.532Z,30.51
2023-05-14T02:52:09.052Z,30.49
2023-05-14T02:54:35.916Z,30.38
2023-05-14T02:57:02.593Z,30.31
2023-05-14T02:59:29.758Z,30.27
2023-05-14T03:01:58.060Z,29.92
2023-05-14T03:04:25.010Z,29.70
2023-05-14T03:06:51.556Z,29.77
2023-05-14T03:09:18.106Z,29.96
2023-05-14T03:11:44.681Z,29.84
2023-05-14T03:14:11.299Z,29.70
2023-05-14T03:16:38.349Z,29.89
2023-05-14T03:19:04.947Z,30.13
2023-05-14T03:21:32.113Z,29.89
2023-05-14T03:23:58.718Z,30.03
2023-05-14T03:26:25.700Z,29.95
2023-05-14T03:28:52.808Z,30.06
2023-05-14T03:31:19.367Z,30.18
2023-05-14T03:33:45.969Z,29.97
2023-05-14T03:36:12.474Z,29.92
2023-05-14T03:38:39.693Z,29.94
2023-05-14T03:41:06.303Z,30.15
2023-05-14T03:43:32.826Z,30.12
2023-05-14T03:46:00.148Z,30.25
2023-05-14T03:48:27.103Z,30.25
2023-05-14T03:50:53.811Z,30.07
2023-05-14T03:53:20.796Z,29.95
2023-05-14T03:55:47.418Z,30.08
2023-05-14T03:58:14.429Z,30.22
2023-05-14T04:00:44.203Z,30.16
2023-05-14T04:03:11.729Z,29.86
2023-05-14T04:05:38.401Z,30.12
2023-05-14T04:08:05.846Z,30.20
2023-05-14T04:10:32.810Z,30.41
2023-05-14T04:13:00.485Z,30.52
2023-05-14T04:15:31.548Z,30.45
2023-05-14T04:17:58.141Z,30.51
2023-05-14T04:20:24.954Z,30.72
2023-05-14T04:22:51.714Z,30.73
2023-05-14T04:25:18.528Z,30.73
2023-05-14T04:27:45.403Z,30.82
2023-05-14T04:30:12.475Z,30.88
2023-05-14T04:32:39.225Z,30.94
2023-05-14T04:35:06.634Z,30.97
2023-05-14T04:37:33.215Z,30.97
2023-05-14T04:39:59.808Z,30.89
2023-05-14T04:42:26.421Z,30.65
2023-05-14T04:44:53.021Z,30.71
2023-05-14T04:47:21.045Z,30.74
2023-05-14T04:49:47.894Z,30.91
2023-05-14T04:52:14.553Z,30.88
2023-05-14T04:54:41.570Z,30.81
2023-05-14T04:57:08.146Z,31.31
2023-05-14T04:59:34.750Z,31.35
2023-05-14T05:02:01.575Z,31.76
2023-05-14T05:04:28.133Z,31.65
2023-05-14T05:06:54.687Z,31.99
2023-05-14T05:09:21.201Z,31.96
2023-05-14T05:11:47.722Z,31.94
2023-05-14T05:14:14.268Z,31.92
2023-05-14T05:16:41.109Z,32.37
2023-05-14T05:19:07.728Z,33.69
2023-05-14T05:21:35.102Z,35.53
2023-05-14T05:24:01.966Z,37.21
2023-05-14T05:26:28.852Z,39.02
2023-05-14T05:28:55.488Z,40.59
2023-05-14T05:31:22.127Z,42.13
2023-05-14T05:33:48.847Z,43.26
2023-05-14T05:36:15.481Z,43.83
2023-05-14T05:38:42.379Z,43.84
2023-05-14T05:41:09.429Z,44.04
2023-05-14T05:43:35.945Z,44.50
2023-05-14T05:46:02.478Z,45.31
2023-05-14T05:48:29.058Z,45.00
2023-05-14T05:50:55.768Z,44.46
2023-05-14T05:53:24.918Z,44.03
2023-05-14T05:55:51.663Z,44.61
2023-05-14T05:58:19.073Z,45.11
2023-05-14T06:00:47.029Z,45.84
2023-05-14T06:03:14.771Z,46.69
2023-05-14T06:05:42.029Z,47.28
2023-05-14T06:08:08.670Z,47.71
2023-05-14T06:10:36.266Z,47.85
2023-05-14T06:13:03.024Z,48.08
2023-05-14T06:15:29.565Z,47.80
2023-05-14T06:17:56.173Z,47.65
2023-05-14T06:20:23.105Z,47.85
2023-05-14T06:22:49.883Z,48.42
2023-05-14T06:25:16.490Z,49.06
2023-05-14T06:27:43.548Z,49.57
2023-05-14T06:30:11.251Z,49.69
2023-05-14T06:32:37.905Z,50.15
2023-05-14T06:35:05.115Z,49.68
2023-05-14T06:37:31.791Z,49.87
2023-05-14T06:39:58.696Z,49.02
2023-05-14T06:42:26.338Z,48.75
2023-05-14T06:44:52.908Z,49.38
2023-05-14T06:47:19.447Z,49.74
2023-05-14T06:49:46.792Z,49.34
2023-05-14T06:52:13.585Z,49.22
2023-05-14T06:54:40.137Z,49.54
2023-05-14T06:57:06.795Z,49.45
2023-05-14T06:59:33.575Z,49.53
2023-05-14T07:02:00.159Z,48.69
2023-05-14T07:04:26.825Z,48.88
2023-05-14T07:06:53.433Z,48.74
2023-05-14T07:09:19.981Z,48.91
2023-05-14T07:11:46.519Z,48.79
2023-05-14T07:14:13.070Z,48.86
2023-05-14T07:16:40.219Z,49.10
2023-05-14T07:19:06.886Z,47.65
2023-05-14T07:21:33.521Z,46.91
2023-05-14T07:24:01.107Z,46.51
2023-05-14T07:26:27.640Z,44.88
2023-05-14T07:28:54.224Z,44.66
2023-05-14T07:31:20.815Z,45.32
2023-05-14T07:33:47.878Z,44.20
2023-05-14T07:36:14.482Z,44.00
2023-05-14T07:38:41.548Z,44.96
2023-05-14T07:41:08.055Z,44.62
2023-05-14T07:43:34.595Z,43.41
2023-05-14T07:46:01.107Z,43.76
2023-05-14T07:48:27.718Z,43.59
2023-05-14T07:50:54.733Z,43.92
2023-05-14T07:53:21.947Z,42.14
2023-05-14T07:55:48.775Z,41.40
2023-05-14T07:58:16.077Z,41.08
2023-05-14T08:00:42.598Z,42.23
2023-05-14T08:03:09.238Z,41.07
2023-05-14T08:05:35.904Z,41.70
2023-05-14T08:08:02.655Z,42.04
2023-05-14T08:10:29.663Z,43.39
2023-05-14T08:12:56.282Z,43.84
2023-05-14T08:15:24.582Z,43.93
2023-05-14T08:17:52.996Z,42.27
2023-05-14T08:20:19.498Z,41.50
2023-05-14T08:22:46.918Z,39.65
2023-05-14T08:25:13.615Z,38.95
2023-05-14T08:27:40.216Z,38.75
2023-05-14T08:30:07.280Z,38.82
2023-05-14T08:32:33.952Z,38.62
2023-05-14T08:35:00.644Z,39.28
2023-05-14T08:37:27.342Z,40.49
2023-05-14T08:39:53.842Z,40.63
2023-05-14T08:42:21.999Z,40.63
2023-05-14T08:44:53.130Z,40.03
2023-05-14T08:47:22.328Z,39.26
2023-05-14T08:49:54.759Z,39.64
2023-05-14T08:52:23.122Z,38.59
2023-05-14T08:54:52.681Z,39.48
2023-05-14T08:57:20.903Z,39.07
2023-05-14T08:59:48.750Z,39.26
2023-05-14T09:02:17.385Z,39.83
2023-05-14T09:04:44.815Z,38.80
2023-05-14T09:07:11.721Z,38.65
2023-05-14T09:09:38.621Z,37.53
2023-05-14T09:12:06.175Z,38.17
2023-05-14T09:14:33.283Z,36.35
2023-05-14T09:16:59.912Z,36.81
2023-05-14T09:19:26.898Z,36.06
2023-05-14T09:21:57.816Z,37.28
2023-05-14T09:24:31.548Z,36.66
2023-05-14T09:26:58.856Z,37.86
2023-05-14T09:29:30.152Z,38.53
2023-05-14T09:31:58.391Z,38.10
2023-05-14T09:34:26.116Z,37.97
2023-05-14T09:37:03.718Z,38.21
2023-05-14T09:39:31.099Z,38.49
2023-05-14T09:41:57.784Z,38.86
2023-05-14T09:44:25.247Z,39.01
2023-05-14T09:46:53.713Z,39.55
2023-05-14T09:49:21.025Z,39.90
2023-05-14T09:51:49.174Z,39.52
2023-05-14T09:54:16.526Z,40.64
2023-05-14T09:56:43.908Z,40.11
2023-05-14T09:59:10.870Z,40.18
2023-05-14T10:01:38.321Z,40.33
2023-05-14T10:04:07.674Z,41.44
2023-05-14T10:06:38.102Z,42.49
2023-05-14T10:09:09.685Z,41.10
2023-05-14T10:11:38.423Z,42.04
2023-05-14T10:14:18.234Z,41.64
2023-05-14T10:16:50.877Z,40.76
2023-05-14T10:19:19.958Z,39.83
2023-05-14T10:21:55.649Z,39.53
2023-05-14T10:24:24.313Z,39.85
2023-05-14T10:26:51.510Z,40.45
2023-05-14T10:29:18.045Z,40.29
2023-05-14T10:31:47.203Z,40.25
2023-05-14T10:34:46.217Z,40.00
2023-05-14T10:37:15.519Z,40.74
2023-05-14T10:39:43.215Z,40.94
2023-05-14T10:42:16.427Z,40.68
2023-05-14T10:44:48.408Z,41.19
2023-05-14T10:47:17.080Z,42.37
2023-05-14T10:49:45.748Z,42.41
2023-05-14T10:52:12.428Z,43.06
2023-05-14T10:54:39.638Z,42.18
2023-05-14T10:57:11.508Z,42.20
2023-05-14T10:59:41.783Z,41.21
2023-05-14T11:02:19.638Z,41.08
2023-05-14T11:04:54.423Z,41.43
2023-05-14T11:07:25.285Z,41.16
2023-05-14T11:09:53.220Z,39.55
2023-05-14T11:12:21.268Z,39.24
2023-05-14T11:14:47.857Z,39.23
2023-05-14T11:17:15.051Z,39.68
2023-05-14T11:19:43.789Z,38.77
2023-05-14T11:22:13.558Z,38.95
2023-05-14T11:24:40.883Z,38.75
2023-05-14T11:27:09.211Z,38.97
2023-05-14T11:29:36.780Z,39.21
2023-05-14T11:32:06.271Z,39.41
2023-05-14T11:34:34.616Z,38.93
2023-05-14T11:37:06.824Z,39.77
2023-05-14T11:39:36.238Z,39.24
2023-05-14T11:42:04.717Z,40.00
2023-05-14T11:44:32.607Z,40.63
2023-05-14T11:46:59.420Z,40.34
2023-05-14T11:49:31.706Z,40.31
2023-05-14T11:51:59.441Z,41.28
2023-05-14T11:54:29.832Z,41.42
2023-05-14T11:56:57.504Z,41.90
2023-05-14T11:59:27.850Z,40.76
2023-05-14T12:01:55.951Z,41.99
2023-05-14T12:04:22.914Z,42.04
2023-05-14T12:06:50.819Z,40.59
2023-05-14T12:09:21.217Z,40.94
2023-05-14T12:11:49.026Z,41.82
2023-05-14T12:14:17.371Z,39.44
2023-05-14T12:16:45.254Z,37.58
2023-05-14T12:19:15.234Z,37.53
2023-05-14T12:21:47.632Z,35.55
2023-05-14T12:24:17.745Z,36.20
2023-05-14T12:26:49.462Z,35.81
2023-05-14T12:29:16.795Z,35.57
2023-05-14T12:31:48.249Z,37.24
2023-05-14T12:34:15.917Z,37.48
2023-05-14T12:36:43.373Z,37.63
2023-05-14T12:39:11.066Z,37.17
2023-05-14T12:41:37.740Z,37.46
2023-05-14T12:44:05.249Z,36.42
2023-05-14T12:46:33.102Z,37.55
2023-05-14T12:48:59.778Z,38.02
2023-05-14T12:51:26.472Z,38.90
2023-05-14T12:53:54.187Z,37.68
2023-05-14T12:56:21.384Z,37.59
2023-05-14T12:58:48.170Z,36.59
2023-05-14T13:01:14.848Z,35.79
2023-05-14T13:03:41.595Z,35.67
2023-05-14T13:06:08.235Z,36.08
2023-05-14T13:08:35.315Z,36.52
2023-05-14T13:11:01.932Z,36.69
2023-05-14T13:13:28.621Z,37.13
2023-05-14T13:15:55.499Z,37.18
2023-05-14T13:18:22.271Z,37.95
2023-05-14T13:20:49.004Z,38.69
2023-05-14T13:23:16.081Z,38.16
2023-05-14T13:25:42.610Z,38.73
2023-05-14T13:28:09.620Z,38.84
2023-05-14T13:30:36.319Z,39.45
2023-05-14T13:33:03.115Z,39.56
2023-05-14T13:35:29.801Z,39.63
2023-05-14T13:37:56.883Z,40.15
2023-05-14T13:40:23.589Z,40.20
2023-05-14T13:42:50.269Z,40.65
2023-05-14T13:45:17.007Z,41.07
2023-05-14T13:47:44.346Z,40.42
2023-05-14T13:50:10.987Z,39.79
2023-05-14T13:52:38.945Z,40.65
2023-05-14T13:55:06.556Z,40.76
2023-05-14T13:57:33.278Z,40.95
2023-05-14T14:00:01.195Z,41.43
2023-05-14T14:02:33.536Z,41.07
2023-05-14T14:05:01.165Z,41.48
2023-05-14T14:07:28.067Z,41.37
2023-05-14T14:09:54.806Z,41.78
2023-05-14T14:12:21.580Z,42.06
2023-05-14T14:14:48.293Z,42.17
2023-05-14T14:17:14.987Z,42.02
2023-05-14T14:19:41.650Z,41.99
2023-05-14T14:22:08.340Z,42.70
2023-05-14T14:24:35.456Z,42.86
2023-05-14T14:27:02.328Z,42.03
2023-05-14T14:29:31.015Z,42.14
2023-05-14T14:31:57.752Z,41.81
2023-05-14T14:34:24.911Z,41.91
2023-05-14T14:36:51.553Z,42.18
2023-05-14T14:39:18.723Z,41.82
2023-05-14T14:41:45.507Z,41.79
2023-05-14T14:44:12.232Z,41.56
2023-05-14T14:46:38.992Z,41.35
2023-05-14T14:49:05.744Z,40.73
2023-05-14T14:51:33.004Z,41.10
2023-05-14T14:54:00.142Z,40.52
2023-05-14T14:56:27.231Z,40.34
2023-05-14T14:58:53.989Z,40.58
2023-05-14T15:01:22.699Z,41.12
2023-05-14T15:03:50.885Z,41.73
2023-05-14T15:06:17.597Z,42.12
2023-05-14T15:08:44.368Z,42.21
2023-05-14T15:11:14.109Z,41.06
2023-05-14T15:13:41.938Z,41.37
2023-05-14T15:16:08.886Z,39.79
2023-05-14T15:18:35.671Z,38.66
2023-05-14T15:21:02.376Z,38.83
2023-05-14T15:23:29.050Z,38.57
2023-05-14T15:25:56.196Z,37.65
2023-05-14T15:28:22.903Z,37.53
2023-05-14T15:30:49.596Z,38.05
2023-05-14T15:33:19.462Z,37.53
2023-05-14T15:35:46.369Z,38.01
2023-05-14T15:38:13.080Z,38.68
2023-05-14T15:40:41.155Z,37.95
2023-05-14T15:43:07.907Z,38.96
2023-05-14T15:45:34.560Z,38.54
2023-05-14T15:48:01.397Z,38.32
2023-05-14T15:50:28.288Z,37.54
2023-05-14T15:52:54.985Z,36.72
2023-05-14T15:55:21.725Z,36.77
2023-05-14T15:57:48.514Z,36.60
2023-05-14T16:00:16.286Z,37.28
2023-05-14T16:02:43.426Z,37.30
2023-05-14T16:05:10.295Z,36.32
2023-05-14T16:07:37.402Z,36.37
2023-05-14T16:10:04.851Z,37.18
2023-05-14T16:12:31.760Z,38.04
2023-05-14T16:14:58.713Z,37.00
2023-05-14T16:17:27.718Z,36.82
2023-05-14T16:19:56.336Z,37.06
2023-05-14T16:22:23.372Z,36.92
2023-05-14T16:24:50.070Z,37.57
2023-05-14T16:27:19.010Z,37.62
2023-05-14T16:29:46.155Z,37.02
2023-05-14T16:32:13.001Z,37.38
2023-05-14T16:34:39.772Z,37.14
2023-05-14T16:37:06.839Z,37.06
2023-05-14T16:39:33.511Z,36.18
2023-05-14T16:42:00.185Z,36.62
2023-05-14T16:44:28.042Z,37.23
2023-05-14T16:47:24.044Z,38.40
2023-05-14T16:49:50.901Z,38.41
2023-05-14T16:52:17.630Z,39.03
2023-05-14T16:54:44.269Z,38.92
2023-05-14T16:57:11.302Z,38.86
2023-05-14T16:59:38.323Z,39.58
2023-05-14T17:02:04.984Z,39.58
2023-05-14T17:04:33.318Z,39.99
2023-05-14T17:07:01.384Z,40.35
2023-05-14T17:09:28.065Z,40.10
2023-05-14T17:11:54.790Z,40.61
2023-05-14T17:14:22.033Z,40.63
2023-05-14T17:16:48.761Z,40.79
2023-05-14T17:19:15.688Z,40.69
2023-05-14T17:21:42.972Z,41.06
2023-05-14T17:24:10.211Z,41.01
2023-05-14T17:26:37.730Z,40.63
2023-05-14T17:29:04.865Z,39.77
2023-05-14T17:31:31.552Z,38.50
2023-05-14T17:33:58.830Z,38.63
2023-05-14T17:36:25.813Z,38.66
2023-05-14T17:38:52.534Z,38.67
2023-05-14T17:41:19.720Z,39.08
2023-05-14T17:43:47.051Z,38.68
2023-05-14T17:46:14.036Z,39.27
2023-05-14T17:48:40.812Z,39.14
2023-05-14T17:51:07.917Z,39.48
2023-05-14T17:53:34.611Z,39.61
2023-05-14T17:56:01.487Z,39.68
2023-05-14T17:58:28.549Z,39.47
2023-05-14T18:00:55.547Z,39.51
2023-05-14T18:03:22.387Z,39.52
2023-05-14T18:05:49.205Z,39.55
2023-05-14T18:08:15.903Z,38.99
2023-05-14T18:10:42.929Z,39.07
2023-05-14T18:13:10.032Z,39.09
2023-05-14T18:15:36.838Z,38.95
2023-05-14T18:18:03.896Z,39.25
2023-05-14T18:20:31.175Z,39.25
2023-05-14T18:22:59.120Z,38.95
2023-05-14T18:25:26.233Z,38.54
2023-05-14T18:27:53.817Z,39.18
2023-05-14T18:30:20.607Z,39.37
2023-05-14T18:32:47.482Z,39.32
2023-05-14T18:35:14.628Z,39.24
2023-05-14T18:37:41.729Z,39.17
2023-05-14T18:40:09.254Z,39.13
2023-05-14T18:42:35.957Z,38.69
2023-05-14T18:45:04.029Z,38.15
2023-05-14T18:47:32.586Z,37.85
2023-05-14T18:50:01.619Z,35.94
2023-05-14T18:52:28.704Z,36.28
2023-05-14T18:54:55.670Z,36.39
2023-05-14T18:57:22.506Z,36.85
2023-05-14T18:59:49.703Z,36.47
2023-05-14T19:02:16.587Z,36.53
2023-05-14T19:04:52.338Z,36.18
2023-05-14T19:07:20.866Z,35.94
2023-05-14T19:09:48.049Z,36.75
2023-05-14T19:12:14.870Z,36.92
2023-05-14T19:14:42.002Z,36.94
2023-05-14T19:17:08.713Z,36.81
2023-05-14T19:19:36.540Z,37.08
2023-05-14T19:22:03.709Z,36.83
2023-05-14T19:24:30.839Z,36.58
2023-05-14T19:26:57.713Z,36.36
2023-05-14T19:29:30.158Z,36.59
2023-05-14T19:31:57.001Z,36.45
2023-05-14T19:34:23.797Z,35.95
2023-05-14T19:36:50.736Z,35.96
2023-05-14T19:39:17.425Z,35.84
2023-05-14T19:41:44.198Z,35.58
2023-05-14T19:44:11.082Z,35.98
2023-05-14T19:46:37.926Z,35.56
2023-05-14T19:49:04.965Z,35.46
2023-05-14T19:51:31.691Z,35.68
2023-05-14T19:53:58.381Z,35.69
2023-05-14T19:56:27.135Z,35.89
2023-05-14T19:58:54.263Z,35.87
2023-05-14T20:01:21.116Z,35.84
2023-05-14T20:03:48.129Z,35.95
2023-05-14T20:06:14.870Z,36.14
2023-05-14T20:08:41.785Z,36.23
2023-05-14T20:11:08.446Z,36.27
2023-05-14T20:13:36.405Z,35.90
2023-05-14T20:16:03.322Z,35.55
2023-05-14T20:18:30.160Z,35.78
2023-05-14T20:20:57.182Z,35.96
2023-05-14T20:23:24.039Z,35.93
2023-05-14T20:25:51.575Z,35.81
2023-05-14T20:28:18.280Z,36.01
2023-05-14T20:30:45.074Z,35.82
2023-05-14T20:33:13.317Z,35.79
2023-05-14T20:35:43.714Z,35.83
2023-05-14T20:38:12.545Z,35.75
2023-05-14T20:40:39.711Z,35.52
2023-05-14T20:43:06.512Z,35.66
2023-05-14T20:45:34.988Z,35.71
2023-05-14T20:48:01.881Z,35.62
2023-05-14T20:50:28.715Z,35.60
2023-05-14T20:52:55.581Z,35.53
2023-05-14T20:55:22.343Z,35.43
2023-05-14T20:57:49.638Z,35.41
2023-05-14T21:00:16.731Z,34.95
2023-05-14T21:02:43.580Z,34.92
2023-05-14T21:05:10.980Z,35.21
2023-05-14T21:07:39.246Z,35.27
2023-05-14T21:10:07.675Z,35.29
2023-05-14T21:12:34.218Z,34.73
2023-05-14T21:15:00.764Z,34.72
2023-05-14T21:17:27.735Z,34.59
2023-05-14T21:19:54.310Z,34.68
2023-05-14T21:22:22.015Z,34.96
2023-05-14T21:24:50.315Z,34.96
2023-05-14T21:27:16.993Z,35.12
2023-05-14T21:29:46.171Z,34.97
2023-05-14T21:32:13.100Z,34.80
2023-05-14T21:34:39.694Z,34.44
2023-05-14T21:37:06.741Z,34.02
2023-05-14T21:39:33.298Z,34.04
2023-05-14T21:41:59.841Z,34.09
2023-05-14T21:44:26.404Z,33.74
2023-05-14T21:46:52.963Z,33.54
2023-05-14T21:49:19.510Z,33.82
2023-05-14T21:51:46.621Z,33.85
2023-05-14T21:54:14.002Z,33.93
2023-05-14T21:56:40.735Z,33.66
2023-05-14T21:59:07.291Z,33.71
2023-05-14T22:01:38.575Z,32.90
2023-05-14T22:04:12.608Z,33.43
2023-05-14T22:06:39.410Z,33.62
2023-05-14T22:09:05.998Z,33.68
2023-05-14T22:11:32.560Z,33.77
2023-05-14T22:13:59.085Z,33.85
2023-05-14T22:16:26.786Z,33.63
2023-05-14T22:18:53.942Z,33.55
2023-05-14T22:21:20.620Z,33.56
2023-05-14T22:23:47.913Z,33.60
2023-05-14T22:26:14.528Z,33.51
2023-05-14T22:28:42.918Z,33.49
2023-05-14T22:31:10.369Z,33.21
2023-05-14T22:33:36.947Z,33.05
2023-05-14T22:36:04.170Z,32.92
2023-05-14T22:38:30.735Z,32.95
2023-05-14T22:40:57.288Z,32.87
2023-05-14T22:43:23.890Z,32.96
2023-05-14T22:45:50.765Z,32.86
2023-05-14T22:48:17.764Z,32.53
2023-05-14T22:50:44.610Z,32.32
2023-05-14T22:53:11.171Z,32.36
2023-05-14T22:55:38.210Z,32.04
2023-05-14T22:58:05.519Z,32.35
2023-05-14T23:00:32.055Z,32.35
2023-05-14T23:02:58.706Z,32.41
2023-05-14T23:05:25.801Z,32.31
2023-05-14T23:07:53.663Z,32.35
2023-05-14T23:10:20.227Z,32.27
2023-05-14T23:12:47.558Z,32.43
2023-05-14T23:15:14.206Z,32.58
2023-05-14T23:17:40.766Z,32.47
2023-05-14T23:20:10.594Z,32.51
2023-05-14T23:22:37.112Z,32.46
2023-05-14T23:25:04.286Z,32.44
2023-05-14T23:27:31.058Z,32.33
2023-05-14T23:29:57.614Z,32.38
2023-05-14T23:32:24.210Z,32.46
2023-05-14T23:34:51.037Z,32.39
2023-05-14T23:37:17.932Z,32.35
2023-05-14T23:39:44.583Z,32.19
2023-05-14T23:42:11.145Z,32.21
2023-05-14T23:44:37.714Z,32.27
2023-05-14T23:47:05.465Z,32.18
2023-05-14T23:49:32.153Z,32.24
2023-05-14T23:51:58.739Z,32.20
2023-05-14T23:54:25.415Z,31.88
2023-05-14T23:56:52.557Z,31.94
2023-05-14T23:59:19.124Z,31.56
